KRKW/RKW METAR and TAF weather

Enter ICAO airport designator
Station Type Date Time Source
KRKW METAR 2020/01/24 21:15 UTC NOAA

KRKW 242115Z AUTO 19008G13KT 170V230 10SM BKN016 BKN025 BKN033 10/06 A2986 RMK A01


Station Type Date Time Source
KRKW Decoded METAR 2020/01/24 21:15 UTC NOAA

Station name not available
Jan 24, 2020 - 04:15 PM EST / 2020.01.24 2115 UTC
Wind: from the S (190 degrees) at 9 MPH (8 KT) gusting to 15 MPH (13 KT) (direction variable):0
Visibility: 10 mile(s):0
Sky conditions: mostly cloudy
Temperature: 50 F (10 C)
Dew Point: 42 F (6 C)
Relative Humidity: 76%
Pressure (altimeter): 29.86 in. Hg (1011 hPa)
ob: KRKW 242115Z AUTO 19008G13KT 170V230 10SM BKN016 BKN025 BKN033 10/06 A2986 RMK A01
cycle: 21

Station Type Date Time Source
KRKW TAF 2009/08/31 19:50 UTC NOAA

METAR KRKW 311950Z AUTO VRB05KT 10SM CLR 25/13 A3010
RMK AO1 T02500133 $

Example: see airport list